sensor_id;sensor_type;location;lat;lon;timestamp;P1;durP1;ratioP1;P2;durP2;ratioP2
21741;SDS011;11033;47.490;11.116;2023-12-28T00:00:36;1.13;;;1.02;;
21741;SDS011;11033;47.490;11.116;2023-12-28T00:03:01;1.23;;;0.90;;
21741;SDS011;11033;47.490;11.116;2023-12-28T00:05:27;1.35;;;0.98;;
21741;SDS011;11033;47.490;11.116;2023-12-28T00:07:52;1.10;;;1.00;;
21741;SDS011;11033;47.490;11.116;2023-12-28T00:10:23;1.10;;;1.00;;
21741;SDS011;11033;47.490;11.116;2023-12-28T00:12:49;1.40;;;0.93;;
21741;SDS011;11033;47.490;11.116;2023-12-28T00:15:14;1.10;;;1.00;;
21741;SDS011;11033;47.490;11.116;2023-12-28T00:17:39;0.98;;;0.90;;
21741;SDS011;11033;47.490;11.116;2023-12-28T00:20:05;1.20;;;0.90;;
21741;SDS011;11033;47.490;11.116;2023-12-28T00:22:31;0.93;;;0.90;;
21741;SDS011;11033;47.490;11.116;2023-12-28T00:24:56;1.35;;;1.10;;
21741;SDS011;11033;47.490;11.116;2023-12-28T00:27:21;1.33;;;1.15;;
21741;SDS011;11033;47.490;11.116;2023-12-28T00:29:46;1.38;;;1.00;;
21741;SDS011;11033;47.490;11.116;2023-12-28T00:32:12;1.92;;;0.90;;
21741;SDS011;11033;47.490;11.116;2023-12-28T00:34:37;0.95;;;0.85;;
21741;SDS011;11033;47.490;11.116;2023-12-28T00:37:04;1.10;;;1.00;;
21741;SDS011;11033;47.490;11.116;2023-12-28T00:39:29;1.13;;;1.02;;
21741;SDS011;11033;47.490;11.116;2023-12-28T00:41:55;1.10;;;1.00;;
21741;SDS011;11033;47.490;11.116;2023-12-28T00:44:20;1.05;;;0.90;;
21741;SDS011;11033;47.490;11.116;2023-12-28T00:46:45;1.35;;;0.88;;
21741;SDS011;11033;47.490;11.116;2023-12-28T00:49:11;1.08;;;0.90;;
21741;SDS011;11033;47.490;11.116;2023-12-28T00:51:36;1.00;;;0.90;;
21741;SDS011;11033;47.490;11.116;2023-12-28T00:54:01;1.20;;;1.10;;
21741;SDS011;11033;47.490;11.116;2023-12-28T00:56:27;1.95;;;0.90;;
21741;SDS011;11033;47.490;11.116;2023-12-28T00:58:52;1.25;;;1.10;;
21741;SDS011;11033;47.490;11.116;2023-12-28T01:01:17;1.13;;;1.00;;
21741;SDS011;11033;47.490;11.116;2023-12-28T01:03:43;1.05;;;0.95;;
21741;SDS011;11033;47.490;11.116;2023-12-28T01:06:08;1.50;;;1.10;;
21741;SDS011;11033;47.490;11.116;2023-12-28T01:08:33;1.10;;;1.00;;
21741;SDS011;11033;47.490;11.116;2023-12-28T01:10:59;1.42;;;1.02;;
21741;SDS011;11033;47.490;11.116;2023-12-28T01:13:25;1.33;;;1.00;;
21741;SDS011;11033;47.490;11.116;2023-12-28T01:15:50;1.85;;;0.90;;
21741;SDS011;11033;47.490;11.116;2023-12-28T01:18:16;1.17;;;1.00;;
21741;SDS011;11033;47.490;11.116;2023-12-28T01:20:41;1.58;;;0.70;;
21741;SDS011;11033;47.490;11.116;2023-12-28T01:23:06;1.55;;;0.90;;
21741;SDS011;11033;47.490;11.116;2023-12-28T01:25:32;0.82;;;0.80;;
21741;SDS011;11033;47.490;11.116;2023-12-28T01:27:57;1.10;;;1.00;;
21741;SDS011;11033;47.490;11.116;2023-12-28T01:30:22;0.77;;;0.77;;
21741;SDS011;11033;47.490;11.116;2023-12-28T01:32:47;1.40;;;1.00;;
21741;SDS011;11033;47.490;11.116;2023-12-28T01:35:13;2.97;;;1.05;;
21741;SDS011;11033;47.490;11.116;2023-12-28T01:37:38;0.75;;;0.75;;
21741;SDS011;11033;47.490;11.116;2023-12-28T01:40:03;1.00;;;0.90;;
21741;SDS011;11033;47.490;11.116;2023-12-28T01:42:29;2.53;;;0.80;;
21741;SDS011;11033;47.490;11.116;2023-12-28T01:44:56;1.00;;;1.00;;
21741;SDS011;11033;47.490;11.116;2023-12-28T01:47:22;1.00;;;0.90;;
21741;SDS011;11033;47.490;11.116;2023-12-28T01:49:49;1.25;;;0.93;;
21741;SDS011;11033;47.490;11.116;2023-12-28T01:52:14;1.17;;;0.80;;
21741;SDS011;11033;47.490;11.116;2023-12-28T01:54:40;1.05;;;0.95;;
21741;SDS011;11033;47.490;11.116;2023-12-28T01:57:05;2.20;;;0.90;;
21741;SDS011;11033;47.490;11.116;2023-12-28T01:59:31;0.82;;;0.80;;
21741;SDS011;11033;47.490;11.116;2023-12-28T02:01:57;0.80;;;0.80;;
21741;SDS011;11033;47.490;11.116;2023-12-28T02:04:23;0.88;;;0.80;;
21741;SDS011;11033;47.490;11.116;2023-12-28T02:06:56;1.20;;;0.90;;
21741;SDS011;11033;47.490;11.116;2023-12-28T02:09:23;1.15;;;0.90;;
21741;SDS011;11033;47.490;11.116;2023-12-28T02:11:48;2.13;;;0.90;;
21741;SDS011;11033;47.490;11.116;2023-12-28T02:14:14;0.85;;;0.85;;
21741;SDS011;11033;47.490;11.116;2023-12-28T02:16:42;0.80;;;0.80;;
21741;SDS011;11033;47.490;11.116;2023-12-28T02:19:19;2.25;;;0.90;;
21741;SDS011;11033;47.490;11.116;2023-12-28T02:21:56;1.13;;;1.00;;
21741;SDS011;11033;47.490;11.116;2023-12-28T02:24:24;1.27;;;0.90;;
21741;SDS011;11033;47.490;11.116;2023-12-28T02:26:49;0.80;;;0.80;;
21741;SDS011;11033;47.490;11.116;2023-12-28T02:29:14;0.85;;;0.85;;
21741;SDS011;11033;47.490;11.116;2023-12-28T02:31:42;0.75;;;0.75;;
21741;SDS011;11033;47.490;11.116;2023-12-28T02:34:26;1.30;;;1.02;;
21741;SDS011;11033;47.490;11.116;2023-12-28T02:36:58;0.95;;;0.80;;
21741;SDS011;11033;47.490;11.116;2023-12-28T02:39:26;0.93;;;0.93;;
21741;SDS011;11033;47.490;11.116;2023-12-28T02:41:54;1.33;;;1.02;;
21741;SDS011;11033;47.490;11.116;2023-12-28T02:44:20;1.38;;;0.88;;
21741;SDS011;11033;47.490;11.116;2023-12-28T02:46:46;2.58;;;0.70;;
21741;SDS011;11033;47.490;11.116;2023-12-28T02:49:11;1.30;;;1.00;;
21741;SDS011;11033;47.490;11.116;2023-12-28T02:51:36;1.00;;;0.90;;
21741;SDS011;11033;47.490;11.116;2023-12-28T02:54:02;0.95;;;0.85;;
21741;SDS011;11033;47.490;11.116;2023-12-28T02:56:27;1.20;;;1.10;;
21741;SDS011;11033;47.490;11.116;2023-12-28T02:58:53;0.80;;;0.80;;
21741;SDS011;11033;47.490;11.116;2023-12-28T03:01:18;1.00;;;0.90;;
21741;SDS011;11033;47.490;11.116;2023-12-28T03:03:43;0.77;;;0.75;;
21741;SDS011;11033;47.490;11.116;2023-12-28T03:06:08;1.10;;;1.00;;
21741;SDS011;11033;47.490;11.116;2023-12-28T03:08:34;1.35;;;0.90;;
21741;SDS011;11033;47.490;11.116;2023-12-28T03:10:59;1.05;;;0.90;;
21741;SDS011;11033;47.490;11.116;2023-12-28T03:13:24;1.10;;;0.90;;
21741;SDS011;11033;47.490;11.116;2023-12-28T03:15:49;0.80;;;0.80;;
21741;SDS011;11033;47.490;11.116;2023-12-28T03:18:15;0.70;;;0.70;;
21741;SDS011;11033;47.490;11.116;2023-12-28T03:20:40;2.15;;;0.90;;
21741;SDS011;11033;47.490;11.116;2023-12-28T03:23:05;1.08;;;0.80;;
21741;SDS011;11033;47.490;11.116;2023-12-28T03:25:31;2.38;;;0.93;;
21741;SDS011;11033;47.490;11.116;2023-12-28T03:27:56;0.70;;;0.70;;
21741;SDS011;11033;47.490;11.116;2023-12-28T03:30:21;1.23;;;0.98;;
21741;SDS011;11033;47.490;11.116;2023-12-28T03:32:46;1.02;;;0.90;;
21741;SDS011;11033;47.490;11.116;2023-12-28T03:35:12;0.80;;;0.80;;
21741;SDS011;11033;47.490;11.116;2023-12-28T03:37:37;1.83;;;0.93;;
21741;SDS011;11033;47.490;11.116;2023-12-28T03:40:03;0.90;;;0.70;;
21741;SDS011;11033;47.490;11.116;2023-12-28T03:42:28;0.77;;;0.77;;
21741;SDS011;11033;47.490;11.116;2023-12-28T03:44:54;1.13;;;0.70;;
21741;SDS011;11033;47.490;11.116;2023-12-28T03:47:19;1.23;;;0.88;;
21741;SDS011;11033;47.490;11.116;2023-12-28T03:49:45;1.42;;;0.95;;
21741;SDS011;11033;47.490;11.116;2023-12-28T03:52:10;3.42;;;0.88;;
21741;SDS011;11033;47.490;11.116;2023-12-28T03:54:35;1.02;;;0.90;;
21741;SDS011;11033;47.490;11.116;2023-12-28T03:57:00;0.88;;;0.80;;
21741;SDS011;11033;47.490;11.116;2023-12-28T03:59:26;1.40;;;1.23;;
21741;SDS011;11033;47.490;11.116;2023-12-28T04:01:51;1.67;;;0.60;;
21741;SDS011;11033;47.490;11.116;2023-12-28T04:04:16;0.70;;;0.70;;
21741;SDS011;11033;47.490;11.116;2023-12-28T04:06:42;1.65;;;0.77;;
21741;SDS011;11033;47.490;11.116;2023-12-28T04:09:10;1.00;;;0.90;;
21741;SDS011;11033;47.490;11.116;2023-12-28T04:11:36;1.30;;;1.00;;
21741;SDS011;11033;47.490;11.116;2023-12-28T04:14:02;1.55;;;1.00;;
21741;SDS011;11033;47.490;11.116;2023-12-28T04:16:27;1.20;;;1.10;;
21741;SDS011;11033;47.490;11.116;2023-12-28T04:18:53;1.45;;;1.00;;
21741;SDS011;11033;47.490;11.116;2023-12-28T04:21:18;1.08;;;0.77;;
21741;SDS011;11033;47.490;11.116;2023-12-28T04:23:44;0.68;;;0.68;;
21741;SDS011;11033;47.490;11.116;2023-12-28T04:26:09;0.82;;;0.70;;
21741;SDS011;11033;47.490;11.116;2023-12-28T04:28:34;1.90;;;0.80;;
21741;SDS011;11033;47.490;11.116;2023-12-28T04:31:06;0.77;;;0.75;;
21741;SDS011;11033;47.490;11.116;2023-12-28T04:33:32;1.33;;;0.82;;
21741;SDS011;11033;47.490;11.116;2023-12-28T04:36:02;0.88;;;0.80;;
21741;SDS011;11033;47.490;11.116;2023-12-28T04:38:29;1.45;;;1.00;;
21741;SDS011;11033;47.490;11.116;2023-12-28T04:40:55;1.17;;;0.90;;
21741;SDS011;11033;47.490;11.116;2023-12-28T04:43:20;1.23;;;0.90;;
21741;SDS011;11033;47.490;11.116;2023-12-28T04:45:48;2.20;;;0.95;;
21741;SDS011;11033;47.490;11.116;2023-12-28T04:48:13;0.80;;;0.80;;
21741;SDS011;11033;47.490;11.116;2023-12-28T04:50:39;0.80;;;0.80;;
21741;SDS011;11033;47.490;11.116;2023-12-28T04:53:04;1.05;;;0.95;;
21741;SDS011;11033;47.490;11.116;2023-12-28T04:55:29;1.05;;;0.80;;
21741;SDS011;11033;47.490;11.116;2023-12-28T04:57:54;0.80;;;0.80;;
21741;SDS011;11033;47.490;11.116;2023-12-28T05:00:20;1.63;;;0.80;;
21741;SDS011;11033;47.490;11.116;2023-12-28T05:02:45;0.90;;;0.80;;
21741;SDS011;11033;47.490;11.116;2023-12-28T05:05:11;1.15;;;0.90;;
21741;SDS011;11033;47.490;11.116;2023-12-28T05:07:37;1.35;;;0.85;;
21741;SDS011;11033;47.490;11.116;2023-12-28T05:10:02;0.85;;;0.80;;
21741;SDS011;11033;47.490;11.116;2023-12-28T05:12:28;1.13;;;0.65;;
21741;SDS011;11033;47.490;11.116;2023-12-28T05:14:54;1.00;;;0.63;;
21741;SDS011;11033;47.490;11.116;2023-12-28T05:17:19;1.95;;;1.10;;
21741;SDS011;11033;47.490;11.116;2023-12-28T05:19:44;1.35;;;0.75;;
21741;SDS011;11033;47.490;11.116;2023-12-28T05:22:09;0.90;;;0.70;;
21741;SDS011;11033;47.490;11.116;2023-12-28T05:24:36;0.80;;;0.80;;
21741;SDS011;11033;47.490;11.116;2023-12-28T05:27:01;1.73;;;1.50;;
21741;SDS011;11033;47.490;11.116;2023-12-28T05:29:26;2.30;;;2.10;;
21741;SDS011;11033;47.490;11.116;2023-12-28T05:31:52;3.15;;;1.95;;
21741;SDS011;11033;47.490;11.116;2023-12-28T05:34:17;1.67;;;1.30;;
21741;SDS011;11033;47.490;11.116;2023-12-28T05:36:42;1.35;;;1.25;;
21741;SDS011;11033;47.490;11.116;2023-12-28T05:39:10;1.20;;;1.10;;
21741;SDS011;11033;47.490;11.116;2023-12-28T05:41:38;1.17;;;1.00;;
21741;SDS011;11033;47.490;11.116;2023-12-28T05:44:03;0.85;;;0.85;;
21741;SDS011;11033;47.490;11.116;2023-12-28T05:46:28;1.35;;;1.00;;
21741;SDS011;11033;47.490;11.116;2023-12-28T05:48:54;2.53;;;1.08;;
21741;SDS011;11033;47.490;11.116;2023-12-28T05:51:19;3.88;;;1.00;;
21741;SDS011;11033;47.490;11.116;2023-12-28T05:53:44;1.55;;;1.15;;
21741;SDS011;11033;47.490;11.116;2023-12-28T05:56:09;2.83;;;1.20;;
21741;SDS011;11033;47.490;11.116;2023-12-28T05:58:35;1.27;;;1.00;;
21741;SDS011;11033;47.490;11.116;2023-12-28T06:01:01;0.90;;;0.90;;
21741;SDS011;11033;47.490;11.116;2023-12-28T06:03:29;1.00;;;0.90;;
21741;SDS011;11033;47.490;11.116;2023-12-28T06:05:55;1.30;;;1.20;;
21741;SDS011;11033;47.490;11.116;2023-12-28T06:08:20;2.97;;;1.05;;
21741;SDS011;11033;47.490;11.116;2023-12-28T06:10:45;1.27;;;0.88;;
21741;SDS011;11033;47.490;11.116;2023-12-28T06:13:11;0.80;;;0.77;;
21741;SDS011;11033;47.490;11.116;2023-12-28T06:15:36;0.80;;;0.80;;
21741;SDS011;11033;47.490;11.116;2023-12-28T06:18:01;1.10;;;1.00;;
21741;SDS011;11033;47.490;11.116;2023-12-28T06:20:28;2.00;;;0.98;;
21741;SDS011;11033;47.490;11.116;2023-12-28T06:22:53;0.95;;;0.90;;
21741;SDS011;11033;47.490;11.116;2023-12-28T06:25:18;2.25;;;1.02;;
21741;SDS011;11033;47.490;11.116;2023-12-28T06:27:44;1.13;;;0.82;;
21741;SDS011;11033;47.490;11.116;2023-12-28T06:30:09;1.05;;;0.88;;
21741;SDS011;11033;47.490;11.116;2023-12-28T06:32:35;1.00;;;0.93;;
21741;SDS011;11033;47.490;11.116;2023-12-28T06:35:00;0.95;;;0.90;;
21741;SDS011;11033;47.490;11.116;2023-12-28T06:37:25;1.42;;;0.93;;
21741;SDS011;11033;47.490;11.116;2023-12-28T06:39:51;1.15;;;1.00;;
21741;SDS011;11033;47.490;11.116;2023-12-28T06:42:16;0.90;;;0.90;;
21741;SDS011;11033;47.490;11.116;2023-12-28T06:44:41;1.00;;;0.80;;
21741;SDS011;11033;47.490;11.116;2023-12-28T06:47:06;1.83;;;0.70;;
21741;SDS011;11033;47.490;11.116;2023-12-28T06:49:32;1.00;;;0.90;;
21741;SDS011;11033;47.490;11.116;2023-12-28T06:51:57;1.05;;;0.80;;
21741;SDS011;11033;47.490;11.116;2023-12-28T06:54:22;1.00;;;0.90;;
21741;SDS011;11033;47.490;11.116;2023-12-28T06:56:48;2.83;;;1.17;;
21741;SDS011;11033;47.490;11.116;2023-12-28T06:59:13;1.65;;;1.10;;
21741;SDS011;11033;47.490;11.116;2023-12-28T07:01:41;1.42;;;1.10;;
21741;SDS011;11033;47.490;11.116;2023-12-28T07:04:07;1.70;;;0.85;;
21741;SDS011;11033;47.490;11.116;2023-12-28T07:06:32;1.15;;;0.70;;
21741;SDS011;11033;47.490;11.116;2023-12-28T07:08:58;1.60;;;1.05;;
21741;SDS011;11033;47.490;11.116;2023-12-28T07:11:23;0.80;;;0.80;;
21741;SDS011;11033;47.490;11.116;2023-12-28T07:13:48;0.80;;;0.80;;
21741;SDS011;11033;47.490;11.116;2023-12-28T07:16:14;0.95;;;0.90;;
21741;SDS011;11033;47.490;11.116;2023-12-28T07:18:39;4.10;;;2.40;;
21741;SDS011;11033;47.490;11.116;2023-12-28T07:21:05;2.80;;;1.70;;
21741;SDS011;11033;47.490;11.116;2023-12-28T07:23:34;2.50;;;1.33;;
21741;SDS011;11033;47.490;11.116;2023-12-28T07:25:59;3.42;;;1.80;;
21741;SDS011;11033;47.490;11.116;2023-12-28T07:28:24;2.50;;;2.00;;
21741;SDS011;11033;47.490;11.116;2023-12-28T07:30:50;7.53;;;2.40;;
21741;SDS011;11033;47.490;11.116;2023-12-28T07:33:15;2.03;;;1.80;;
21741;SDS011;11033;47.490;11.116;2023-12-28T07:35:40;2.97;;;1.38;;
21741;SDS011;11033;47.490;11.116;2023-12-28T07:38:05;1.55;;;1.00;;
21741;SDS011;11033;47.490;11.116;2023-12-28T07:40:31;1.00;;;1.00;;
21741;SDS011;11033;47.490;11.116;2023-12-28T07:42:56;1.17;;;1.08;;
21741;SDS011;11033;47.490;11.116;2023-12-28T07:45:21;1.88;;;1.17;;
21741;SDS011;11033;47.490;11.116;2023-12-28T07:47:49;5.25;;;1.50;;
21741;SDS011;11033;47.490;11.116;2023-12-28T07:50:15;4.13;;;1.42;;
21741;SDS011;11033;47.490;11.116;2023-12-28T07:52:41;4.03;;;1.40;;
21741;SDS011;11033;47.490;11.116;2023-12-28T07:55:07;3.03;;;1.58;;
21741;SDS011;11033;47.490;11.116;2023-12-28T07:57:33;1.77;;;1.20;;
21741;SDS011;11033;47.490;11.116;2023-12-28T07:59:59;2.30;;;1.00;;
21741;SDS011;11033;47.490;11.116;2023-12-28T08:02:25;2.97;;;0.98;;
21741;SDS011;11033;47.490;11.116;2023-12-28T08:04:50;4.05;;;1.20;;
21741;SDS011;11033;47.490;11.116;2023-12-28T08:07:15;2.85;;;1.60;;
21741;SDS011;11033;47.490;11.116;2023-12-28T08:09:40;4.93;;;1.30;;
21741;SDS011;11033;47.490;11.116;2023-12-28T08:12:06;1.52;;;1.30;;
21741;SDS011;11033;47.490;11.116;2023-12-28T08:14:31;2.10;;;1.23;;
21741;SDS011;11033;47.490;11.116;2023-12-28T08:16:56;1.45;;;1.10;;
21741;SDS011;11033;47.490;11.116;2023-12-28T08:19:21;1.10;;;1.00;;
21741;SDS011;11033;47.490;11.116;2023-12-28T08:21:47;1.20;;;1.10;;
21741;SDS011;11033;47.490;11.116;2023-12-28T08:24:12;1.25;;;0.85;;
21741;SDS011;11033;47.490;11.116;2023-12-28T08:26:37;1.25;;;1.15;;
21741;SDS011;11033;47.490;11.116;2023-12-28T08:29:03;2.67;;;1.40;;
21741;SDS011;11033;47.490;11.116;2023-12-28T08:31:28;2.72;;;1.48;;
21741;SDS011;11033;47.490;11.116;2023-12-28T08:33:54;1.70;;;1.60;;
21741;SDS011;11033;47.490;11.116;2023-12-28T08:36:20;1.58;;;1.15;;
21741;SDS011;11033;47.490;11.116;2023-12-28T08:38:45;1.77;;;1.30;;
21741;SDS011;11033;47.490;11.116;2023-12-28T08:41:44;3.53;;;1.50;;
21741;SDS011;11033;47.490;11.116;2023-12-28T08:44:02;2.75;;;1.92;;
21741;SDS011;11033;47.490;11.116;2023-12-28T08:46:27;6.78;;;2.83;;
21741;SDS011;11033;47.490;11.116;2023-12-28T08:48:54;3.88;;;1.92;;
21741;SDS011;11033;47.490;11.116;2023-12-28T08:51:19;3.60;;;1.83;;
21741;SDS011;11033;47.490;11.116;2023-12-28T08:53:45;3.45;;;1.38;;
21741;SDS011;11033;47.490;11.116;2023-12-28T08:56:17;3.10;;;1.20;;
21741;SDS011;11033;47.490;11.116;2023-12-28T08:58:46;3.88;;;1.38;;
21741;SDS011;11033;47.490;11.116;2023-12-28T09:01:22;2.78;;;1.38;;
21741;SDS011;11033;47.490;11.116;2023-12-28T09:03:51;1.13;;;0.93;;
21741;SDS011;11033;47.490;11.116;2023-12-28T09:06:19;3.72;;;1.20;;
21741;SDS011;11033;47.490;11.116;2023-12-28T09:08:47;1.75;;;1.42;;
21741;SDS011;11033;47.490;11.116;2023-12-28T09:11:15;3.28;;;1.20;;
21741;SDS011;11033;47.490;11.116;2023-12-28T09:13:41;2.60;;;1.67;;
21741;SDS011;11033;47.490;11.116;2023-12-28T09:16:10;8.95;;;3.38;;
21741;SDS011;11033;47.490;11.116;2023-12-28T09:18:36;3.33;;;2.00;;
21741;SDS011;11033;47.490;11.116;2023-12-28T09:21:03;3.42;;;1.95;;
21741;SDS011;11033;47.490;11.116;2023-12-28T09:23:29;4.57;;;2.33;;
21741;SDS011;11033;47.490;11.116;2023-12-28T09:25:56;7.90;;;2.35;;
21741;SDS011;11033;47.490;11.116;2023-12-28T09:28:22;6.15;;;2.22;;
21741;SDS011;11033;47.490;11.116;2023-12-28T09:30:48;5.07;;;2.97;;
21741;SDS011;11033;47.490;11.116;2023-12-28T09:33:13;2.15;;;1.58;;
21741;SDS011;11033;47.490;11.116;2023-12-28T09:35:38;6.20;;;3.17;;
21741;SDS011;11033;47.490;11.116;2023-12-28T09:38:03;7.13;;;3.28;;
21741;SDS011;11033;47.490;11.116;2023-12-28T09:40:29;5.10;;;2.35;;
21741;SDS011;11033;47.490;11.116;2023-12-28T09:45:37;1.83;;;1.40;;
21741;SDS011;11033;47.490;11.116;2023-12-28T09:48:03;2.88;;;1.70;;
21741;SDS011;11033;47.490;11.116;2023-12-28T09:50:29;4.60;;;1.85;;
21741;SDS011;11033;47.490;11.116;2023-12-28T09:52:55;9.65;;;5.03;;
21741;SDS011;11033;47.490;11.116;2023-12-28T09:55:20;12.48;;;5.72;;
21741;SDS011;11033;47.490;11.116;2023-12-28T09:57:46;7.47;;;3.75;;
21741;SDS011;11033;47.490;11.116;2023-12-28T10:00:12;5.88;;;2.28;;
21741;SDS011;11033;47.490;11.116;2023-12-28T10:02:39;7.00;;;2.60;;
21741;SDS011;11033;47.490;11.116;2023-12-28T10:07:40;2.92;;;1.92;;
21741;SDS011;11033;47.490;11.116;2023-12-28T10:10:06;4.77;;;2.00;;
21741;SDS011;11033;47.490;11.116;2023-12-28T10:12:32;2.88;;;1.30;;
21741;SDS011;11033;47.490;11.116;2023-12-28T10:14:58;3.05;;;1.33;;
21741;SDS011;11033;47.490;11.116;2023-12-28T10:17:23;3.53;;;1.60;;
21741;SDS011;11033;47.490;11.116;2023-12-28T10:19:49;1.85;;;1.35;;
21741;SDS011;11033;47.490;11.116;2023-12-28T10:22:14;2.78;;;1.35;;
21741;SDS011;11033;47.490;11.116;2023-12-28T10:24:43;3.95;;;1.90;;
21741;SDS011;11033;47.490;11.116;2023-12-28T10:27:09;5.57;;;2.10;;
21741;SDS011;11033;47.490;11.116;2023-12-28T10:29:34;7.45;;;2.00;;
21741;SDS011;11033;47.490;11.116;2023-12-28T10:32:00;4.43;;;2.08;;
21741;SDS011;11033;47.490;11.116;2023-12-28T10:34:25;7.25;;;2.20;;
21741;SDS011;11033;47.490;11.116;2023-12-28T10:36:51;8.93;;;2.40;;
21741;SDS011;11033;47.490;11.116;2023-12-28T10:39:17;2.42;;;1.60;;
21741;SDS011;11033;47.490;11.116;2023-12-28T10:41:44;3.20;;;1.67;;
21741;SDS011;11033;47.490;11.116;2023-12-28T10:44:15;1.75;;;1.10;;
21741;SDS011;11033;47.490;11.116;2023-12-28T10:46:44;1.33;;;1.20;;
21741;SDS011;11033;47.490;11.116;2023-12-28T10:49:12;3.08;;;1.50;;
21741;SDS011;11033;47.490;11.116;2023-12-28T10:51:42;2.22;;;1.45;;
21741;SDS011;11033;47.490;11.116;2023-12-28T10:57:12;1.00;;;1.00;;
21741;SDS011;11033;47.490;11.116;2023-12-28T11:02:33;1.70;;;1.40;;
21741;SDS011;11033;47.490;11.116;2023-12-28T11:05:16;3.17;;;1.45;;
21741;SDS011;11033;47.490;11.116;2023-12-28T11:07:44;1.80;;;1.33;;
21741;SDS011;11033;47.490;11.116;2023-12-28T11:10:10;2.83;;;1.48;;
21741;SDS011;11033;47.490;11.116;2023-12-28T11:12:38;4.40;;;1.30;;
21741;SDS011;11033;47.490;11.116;2023-12-28T11:15:04;2.03;;;1.80;;
21741;SDS011;11033;47.490;11.116;2023-12-28T11:17:31;3.95;;;1.92;;
21741;SDS011;11033;47.490;11.116;2023-12-28T11:19:56;2.20;;;1.50;;
21741;SDS011;11033;47.490;11.116;2023-12-28T11:22:23;5.20;;;1.50;;
21741;SDS011;11033;47.490;11.116;2023-12-28T11:24:53;1.40;;;1.10;;
21741;SDS011;11033;47.490;11.116;2023-12-28T11:27:18;1.52;;;0.95;;
21741;SDS011;11033;47.490;11.116;2023-12-28T11:29:44;1.77;;;0.90;;
21741;SDS011;11033;47.490;11.116;2023-12-28T11:32:13;2.55;;;0.90;;
21741;SDS011;11033;47.490;11.116;2023-12-28T11:34:38;3.45;;;1.20;;
21741;SDS011;11033;47.490;11.116;2023-12-28T11:37:06;2.60;;;0.90;;
21741;SDS011;11033;47.490;11.116;2023-12-28T11:39:37;3.27;;;1.30;;
21741;SDS011;11033;47.490;11.116;2023-12-28T11:42:05;2.75;;;1.92;;
21741;SDS011;11033;47.490;11.116;2023-12-28T11:44:36;1.90;;;1.30;;
21741;SDS011;11033;47.490;11.116;2023-12-28T11:47:22;2.92;;;1.40;;
21741;SDS011;11033;47.490;11.116;2023-12-28T11:49:49;2.35;;;1.40;;
21741;SDS011;11033;47.490;11.116;2023-12-28T11:52:37;5.65;;;1.80;;
21741;SDS011;11033;47.490;11.116;2023-12-28T11:55:03;3.47;;;2.38;;
21741;SDS011;11033;47.490;11.116;2023-12-28T11:57:29;2.03;;;1.70;;
21741;SDS011;11033;47.490;11.116;2023-12-28T11:59:55;3.67;;;3.05;;
21741;SDS011;11033;47.490;11.116;2023-12-28T12:02:21;7.30;;;3.83;;
21741;SDS011;11033;47.490;11.116;2023-12-28T12:04:47;6.93;;;3.80;;
21741;SDS011;11033;47.490;11.116;2023-12-28T12:07:13;5.65;;;3.08;;
21741;SDS011;11033;47.490;11.116;2023-12-28T12:09:38;5.90;;;2.78;;
21741;SDS011;11033;47.490;11.116;2023-12-28T12:12:03;6.18;;;3.20;;
21741;SDS011;11033;47.490;11.116;2023-12-28T12:14:29;6.18;;;3.10;;
21741;SDS011;11033;47.490;11.116;2023-12-28T12:16:55;10.13;;;3.38;;
21741;SDS011;11033;47.490;11.116;2023-12-28T12:19:25;6.45;;;3.50;;
21741;SDS011;11033;47.490;11.116;2023-12-28T12:21:54;9.40;;;3.63;;
21741;SDS011;11033;47.490;11.116;2023-12-28T12:24:20;8.60;;;2.70;;
21741;SDS011;11033;47.490;11.116;2023-12-28T12:26:46;6.15;;;2.40;;
21741;SDS011;11033;47.490;11.116;2023-12-28T12:29:12;6.40;;;2.00;;
21741;SDS011;11033;47.490;11.116;2023-12-28T12:31:39;5.38;;;2.10;;
21741;SDS011;11033;47.490;11.116;2023-12-28T12:34:07;9.55;;;2.25;;
21741;SDS011;11033;47.490;11.116;2023-12-28T12:36:33;4.90;;;2.30;;
21741;SDS011;11033;47.490;11.116;2023-12-28T12:38:58;6.13;;;2.72;;
21741;SDS011;11033;47.490;11.116;2023-12-28T12:41:24;10.05;;;4.32;;
21741;SDS011;11033;47.490;11.116;2023-12-28T12:43:51;9.55;;;3.15;;
21741;SDS011;11033;47.490;11.116;2023-12-28T12:46:17;16.40;;;3.35;;
21741;SDS011;11033;47.490;11.116;2023-12-28T12:48:42;4.72;;;2.53;;
21741;SDS011;11033;47.490;11.116;2023-12-28T12:51:07;7.95;;;3.35;;
21741;SDS011;11033;47.490;11.116;2023-12-28T12:53:36;6.85;;;3.20;;
21741;SDS011;11033;47.490;11.116;2023-12-28T12:56:04;8.10;;;3.40;;
21741;SDS011;11033;47.490;11.116;2023-12-28T12:58:30;7.13;;;3.22;;
21741;SDS011;11033;47.490;11.116;2023-12-28T13:00:56;6.05;;;3.50;;
21741;SDS011;11033;47.490;11.116;2023-12-28T13:03:21;8.80;;;2.95;;
21741;SDS011;11033;47.490;11.116;2023-12-28T13:05:47;5.78;;;2.60;;
21741;SDS011;11033;47.490;11.116;2023-12-28T13:08:13;7.38;;;2.20;;
21741;SDS011;11033;47.490;11.116;2023-12-28T13:10:39;3.50;;;2.22;;
21741;SDS011;11033;47.490;11.116;2023-12-28T13:13:07;4.50;;;2.03;;
21741;SDS011;11033;47.490;11.116;2023-12-28T13:15:33;11.88;;;2.45;;
21741;SDS011;11033;47.490;11.116;2023-12-28T13:17:58;17.95;;;3.08;;
21741;SDS011;11033;47.490;11.116;2023-12-28T13:20:23;6.22;;;2.30;;
21741;SDS011;11033;47.490;11.116;2023-12-28T13:22:49;9.60;;;2.40;;
21741;SDS011;11033;47.490;11.116;2023-12-28T13:25:14;5.75;;;2.22;;
21741;SDS011;11033;47.490;11.116;2023-12-28T13:27:40;4.22;;;2.05;;
21741;SDS011;11033;47.490;11.116;2023-12-28T13:30:05;4.63;;;1.70;;
21741;SDS011;11033;47.490;11.116;2023-12-28T13:32:31;8.95;;;2.53;;
21741;SDS011;11033;47.490;11.116;2023-12-28T13:34:56;10.32;;;3.38;;
21741;SDS011;11033;47.490;11.116;2023-12-28T13:37:22;8.48;;;3.50;;
21741;SDS011;11033;47.490;11.116;2023-12-28T13:39:47;22.83;;;11.63;;
21741;SDS011;11033;47.490;11.116;2023-12-28T13:42:12;19.73;;;7.95;;
21741;SDS011;11033;47.490;11.116;2023-12-28T13:44:38;13.68;;;5.03;;
21741;SDS011;11033;47.490;11.116;2023-12-28T13:47:03;11.05;;;3.45;;
21741;SDS011;11033;47.490;11.116;2023-12-28T13:49:30;33.17;;;12.23;;
21741;SDS011;11033;47.490;11.116;2023-12-28T13:51:56;28.38;;;12.10;;
21741;SDS011;11033;47.490;11.116;2023-12-28T13:54:21;26.98;;;8.50;;
21741;SDS011;11033;47.490;11.116;2023-12-28T13:56:46;26.48;;;12.13;;
21741;SDS011;11033;47.490;11.116;2023-12-28T13:59:12;20.75;;;9.77;;
21741;SDS011;11033;47.490;11.116;2023-12-28T14:01:38;13.93;;;6.93;;
21741;SDS011;11033;47.490;11.116;2023-12-28T14:04:04;28.90;;;14.13;;
21741;SDS011;11033;47.490;11.116;2023-12-28T14:06:29;20.77;;;10.05;;
21741;SDS011;11033;47.490;11.116;2023-12-28T14:08:54;18.90;;;7.55;;
21741;SDS011;11033;47.490;11.116;2023-12-28T14:11:20;15.68;;;7.90;;
21741;SDS011;11033;47.490;11.116;2023-12-28T14:13:45;7.05;;;3.15;;
21741;SDS011;11033;47.490;11.116;2023-12-28T14:16:10;3.00;;;2.38;;
21741;SDS011;11033;47.490;11.116;2023-12-28T14:18:35;3.55;;;2.33;;
21741;SDS011;11033;47.490;11.116;2023-12-28T14:21:01;3.83;;;2.22;;
21741;SDS011;11033;47.490;11.116;2023-12-28T14:23:28;3.85;;;2.05;;
21741;SDS011;11033;47.490;11.116;2023-12-28T14:25:54;5.75;;;1.90;;
21741;SDS011;11033;47.490;11.116;2023-12-28T14:28:22;5.03;;;1.80;;
21741;SDS011;11033;47.490;11.116;2023-12-28T14:30:51;4.60;;;2.15;;
21741;SDS011;11033;47.490;11.116;2023-12-28T14:33:17;4.72;;;2.20;;
21741;SDS011;11033;47.490;11.116;2023-12-28T14:35:43;4.90;;;2.70;;
21741;SDS011;11033;47.490;11.116;2023-12-28T14:38:08;5.20;;;3.10;;